PWSweather.com
Personal Weather Stations
Station Observations
IMAZOWIE6
WarszawaPL

WarszawaPL

Lat: 52.27957, Lon: 21.05489

Elevation: 100

Station Type: WS1080

http://stacjapogody.waw.pl/

High Low Average
Temperature 54.5°F12.5°C 40.1°F4.5°C 44.8°F7.1°C
Dew Point -167.4°F-110.8°C -168.8°F-111.6°C -168.3°F-111.3°C
Winds 3.4 mph 5.5 kmh Calm Calm Calm NCalm N
Wind Gusts 8.2 mph13.2 kmh -- --
Humidity - - -
Pressure 29.52 in999.7 mb 29.11 in985.8 mb -
Precipitation 0.00 in0.0 mm - -
Hour Temp Dew Point Humidity Winds Wind Gusts Pressure Precip Precip Rate Daily Precip Total
12:01 AM 42.8°F6.0°C -168.5°F-111.4°C - Calm Calm -- 29.50 in999.0 mb 0.00 in0.0 mm 0.00 in0.0 mm 0.00 in0.0 mm
12:16 AM 42.4°F5.8°C -168.6°F-111.4°C - Calm Calm -- 29.50 in999.0 mb 0.00 in0.0 mm 0.00 in0.0 mm 0.00 in0.0 mm
12:31 AM 42.3°F5.7°C -168.6°F-111.4°C - Calm Calm -- 29.50 in999.0 mb 0.00 in0.0 mm 0.00 in0.0 mm 0.00 in0.0 mm
12:46 AM 41.9°F5.5°C -168.6°F-111.4°C - Calm Calm -- 29.51 in999.3 mb 0.00 in0.0 mm 0.00 in0.0 mm 0.00 in0.0 mm
01:01 AM 41.7°F5.4°C -168.6°F-111.4°C - Calm Calm -- 29.51 in999.3 mb 0.00 in0.0 mm 0.00 in0.0 mm 0.00 in0.0 mm
01:16 AM 41.7°F5.4°C -168.6°F-111.4°C - Calm Calm -- 29.51 in999.3 mb 0.00 in0.0 mm 0.00 in0.0 mm 0.00 in0.0 mm
01:31 AM 41.4°F5.2°C -168.7°F-111.5°C - Calm Calm -- 29.52 in999.7 mb 0.00 in0.0 mm 0.00 in0.0 mm 0.00 in0.0 mm
01:46 AM 41.2°F5.1°C -168.7°F-111.5°C - Calm Calm -- 29.52 in999.7 mb 0.00 in0.0 mm 0.00 in0.0 mm 0.00 in0.0 mm
02:01 AM 41.0°F5.0°C -168.7°F-111.5°C - Calm Calm -- 29.52 in999.7 mb 0.00 in0.0 mm 0.00 in0.0 mm 0.00 in0.0 mm
02:16 AM 41.0°F5.0°C -168.7°F-111.5°C - Calm Calm -- 29.52 in999.7 mb 0.00 in0.0 mm 0.00 in0.0 mm 0.00 in0.0 mm
02:31 AM 40.8°F4.9°C -168.7°F-111.5°C - Calm Calm -- 29.52 in999.7 mb 0.00 in0.0 mm 0.00 in0.0 mm 0.00 in0.0 mm
02:46 AM 41.0°F5.0°C -168.7°F-111.5°C - Calm Calm -- 29.52 in999.7 mb 0.00 in0.0 mm 0.00 in0.0 mm 0.00 in0.0 mm
03:01 AM 40.8°F4.9°C -168.7°F-111.5°C - Calm Calm -- 29.52 in999.7 mb 0.00 in0.0 mm 0.00 in0.0 mm 0.00 in0.0 mm
03:16 AM 40.6°F4.8°C -168.7°F-111.5°C - Calm Calm -- 29.52 in999.7 mb 0.00 in0.0 mm 0.00 in0.0 mm 0.00 in0.0 mm
03:31 AM 40.6°F4.8°C -168.7°F-111.5°C - Calm Calm -- 29.51 in999.3 mb 0.00 in0.0 mm 0.00 in0.0 mm 0.00 in0.0 mm
03:46 AM 40.6°F4.8°C -168.7°F-111.5°C - Calm Calm -- 29.51 in999.3 mb 0.00 in0.0 mm 0.00 in0.0 mm 0.00 in0.0 mm
04:01 AM 40.5°F4.7°C -168.8°F-111.6°C - Calm Calm -- 29.51 in999.3 mb 0.00 in0.0 mm 0.00 in0.0 mm 0.00 in0.0 mm
04:16 AM 40.1°F4.5°C -168.8°F-111.6°C - Calm Calm -- 29.51 in999.3 mb 0.00 in0.0 mm 0.00 in0.0 mm 0.00 in0.0 mm
04:31 AM 40.1°F4.5°C -168.8°F-111.6°C - Calm Calm -- 29.51 in999.3 mb 0.00 in0.0 mm 0.00 in0.0 mm 0.00 in0.0 mm
04:46 AM 40.3°F4.6°C -168.8°F-111.6°C - Calm Calm -- 29.50 in999.0 mb 0.00 in0.0 mm 0.00 in0.0 mm 0.00 in0.0 mm
05:01 AM 40.3°F4.6°C -168.8°F-111.6°C - Calm Calm -- 29.50 in999.0 mb 0.00 in0.0 mm 0.00 in0.0 mm 0.00 in0.0 mm
05:16 AM 40.3°F4.6°C -168.8°F-111.6°C - Calm Calm -- 29.50 in999.0 mb 0.00 in0.0 mm 0.00 in0.0 mm 0.00 in0.0 mm
05:31 AM 40.6°F4.8°C -168.7°F-111.5°C - Calm Calm -- 29.50 in999.0 mb 0.00 in0.0 mm 0.00 in0.0 mm 0.00 in0.0 mm
05:46 AM 40.6°F4.8°C -168.7°F-111.5°C - Calm Calm -- 29.49 in998.6 mb 0.00 in0.0 mm 0.00 in0.0 mm 0.00 in0.0 mm
06:01 AM 40.6°F4.8°C -168.7°F-111.5°C - Calm Calm -- 29.49 in998.6 mb 0.00 in0.0 mm 0.00 in0.0 mm 0.00 in0.0 mm
06:16 AM 40.6°F4.8°C -168.7°F-111.5°C - Calm Calm -- 29.49 in998.6 mb 0.00 in0.0 mm 0.00 in0.0 mm 0.00 in0.0 mm
06:31 AM 41.0°F5.0°C -168.7°F-111.5°C - Calm Calm -- 29.49 in998.6 mb 0.00 in0.0 mm 0.00 in0.0 mm 0.00 in0.0 mm
06:46 AM 41.4°F5.2°C -168.7°F-111.5°C - Calm Calm -- 29.48 in998.3 mb 0.00 in0.0 mm 0.00 in0.0 mm 0.00 in0.0 mm
07:01 AM 41.5°F5.3°C -168.6°F-111.4°C - Calm Calm -- 29.47 in998.0 mb 0.00 in0.0 mm 0.00 in0.0 mm 0.00 in0.0 mm
07:16 AM 41.9°F5.5°C -168.6°F-111.4°C - Calm Calm -- 29.47 in998.0 mb 0.00 in0.0 mm 0.00 in0.0 mm 0.00 in0.0 mm
07:31 AM 42.3°F5.7°C -168.6°F-111.4°C - Calm Calm -- 29.47 in998.0 mb 0.00 in0.0 mm 0.00 in0.0 mm 0.00 in0.0 mm
07:46 AM 42.3°F5.7°C -168.6°F-111.4°C - Calm Calm -- 29.46 in997.6 mb 0.00 in0.0 mm 0.00 in0.0 mm 0.00 in0.0 mm
08:01 AM 42.8°F6.0°C -168.5°F-111.4°C - Calm Calm 0.6 mph1.0 kmh 29.45 in997.3 mb 0.00 in0.0 mm 0.00 in0.0 mm 0.00 in0.0 mm
08:16 AM 44.1°F6.7°C -168.4°F-111.3°C - Calm Calm -- 29.44 in997.0 mb 0.00 in0.0 mm 0.00 in0.0 mm 0.00 in0.0 mm
08:31 AM 45.7°F7.6°C -168.2°F-111.2°C - Calm Calm -- 29.44 in997.0 mb 0.00 in0.0 mm 0.00 in0.0 mm 0.00 in0.0 mm
08:46 AM 47.3°F8.5°C -168.1°F-111.2°C - Calm Calm 1.4 mph2.3 kmh 29.43 in996.6 mb 0.00 in0.0 mm 0.00 in0.0 mm 0.00 in0.0 mm
09:01 AM 47.5°F8.6°C -168.1°F-111.2°C - Calm Calm -- 29.42 in996.3 mb 0.00 in0.0 mm 0.00 in0.0 mm 0.00 in0.0 mm
09:16 AM 48.0°F8.9°C -168.0°F-111.1°C - Calm Calm -- 29.42 in996.3 mb 0.00 in0.0 mm 0.00 in0.0 mm 0.00 in0.0 mm
09:31 AM 48.0°F8.9°C -168.0°F-111.1°C - Calm Calm -- 29.41 in995.9 mb 0.00 in0.0 mm 0.00 in0.0 mm 0.00 in0.0 mm
09:46 AM 47.7°F8.7°C -168.0°F-111.1°C - Calm Calm -- 29.41 in995.9 mb 0.00 in0.0 mm 0.00 in0.0 mm 0.00 in0.0 mm
10:01 AM 48.0°F8.9°C -168.0°F-111.1°C - Calm Calm -- 29.39 in995.3 mb 0.00 in0.0 mm 0.00 in0.0 mm 0.00 in0.0 mm
10:16 AM 51.4°F10.8°C -167.7°F-110.9°C - Calm Calm 0.6 mph1.0 kmh 29.38 in994.9 mb 0.00 in0.0 mm 0.00 in0.0 mm 0.00 in0.0 mm
10:31 AM 54.5°F12.5°C -167.4°F-110.8°C - Calm Calm -- 29.37 in994.6 mb 0.00 in0.0 mm 0.00 in0.0 mm 0.00 in0.0 mm
10:46 AM 52.7°F11.5°C -167.5°F-110.8°C - Calm Calm -- 29.36 in994.2 mb 0.00 in0.0 mm 0.00 in0.0 mm 0.00 in0.0 mm
11:01 AM 53.2°F11.8°C -167.5°F-110.8°C - Calm Calm -- 29.35 in993.9 mb 0.00 in0.0 mm 0.00 in0.0 mm 0.00 in0.0 mm
11:16 AM 53.4°F11.9°C -167.5°F-110.8°C - Calm Calm -- 29.33 in993.2 mb 0.04 in1.0 mm 0.15 in3.8 mm 0.04 in1.0 mm
11:31 AM 53.6°F12.0°C -167.4°F-110.8°C - Calm Calm -- 29.32 in992.9 mb 0.04 in1.0 mm 0.00 in0.0 mm 0.04 in1.0 mm
11:46 AM 53.4°F11.9°C -167.5°F-110.8°C - Calm Calm -- 29.30 in992.2 mb 0.04 in1.0 mm 0.00 in0.0 mm 0.04 in1.0 mm
12:01 PM 53.8°F12.1°C -167.4°F-110.8°C - Calm Calm -- 29.30 in992.2 mb 0.04 in1.0 mm 0.00 in0.0 mm 0.04 in1.0 mm
12:16 PM 54.1°F12.3°C -167.4°F-110.8°C - Calm Calm -- 29.29 in991.9 mb 0.00 in0.0 mm 0.00 in0.0 mm 0.04 in1.0 mm
12:31 PM 53.8°F12.1°C -167.4°F-110.8°C - Calm Calm -- 29.28 in991.5 mb 0.00 in0.0 mm 0.00 in0.0 mm 0.04 in1.0 mm
12:46 PM 54.1°F12.3°C -167.4°F-110.8°C - Calm Calm -- 29.26 in990.9 mb 0.00 in0.0 mm 0.00 in0.0 mm 0.04 in1.0 mm
01:01 PM 53.8°F12.1°C -167.4°F-110.8°C - Calm Calm -- 29.25 in990.5 mb 0.00 in0.0 mm 0.00 in0.0 mm 0.04 in1.0 mm
01:16 PM 53.1°F11.7°C -167.5°F-110.8°C - Calm Calm 0.6 mph1.0 kmh 29.24 in990.2 mb 0.00 in0.0 mm 0.00 in0.0 mm 0.04 in1.0 mm
01:31 PM 53.1°F11.7°C -167.5°F-110.8°C - Calm Calm -- 29.24 in990.2 mb 0.00 in0.0 mm 0.00 in0.0 mm 0.04 in1.0 mm
01:46 PM 52.3°F11.3°C -167.6°F-110.9°C - Calm Calm -- 29.24 in990.2 mb 0.00 in0.0 mm 0.00 in0.0 mm 0.04 in1.0 mm
02:01 PM 49.5°F9.7°C -167.9°F-111.1°C - 3.4 mph N5.5 kmh N 8.2 mph13.2 kmh 29.25 in990.5 mb 0.00 in0.0 mm 0.00 in0.0 mm 0.04 in1.0 mm
02:16 PM 47.3°F8.5°C -168.1°F-111.2°C - Calm Calm -- 29.25 in990.5 mb 0.00 in0.0 mm 0.00 in0.0 mm 0.04 in1.0 mm
02:31 PM 46.4°F8.0°C -168.2°F-111.2°C - Calm Calm 0.6 mph1.0 kmh 29.24 in990.2 mb 0.01 in0.3 mm 0.05 in1.3 mm 0.05 in1.3 mm
02:46 PM 45.7°F7.6°C -168.2°F-111.2°C - Calm Calm 0.6 mph1.0 kmh 29.24 in990.2 mb 0.02 in0.5 mm 0.05 in1.3 mm 0.06 in1.5 mm
03:01 PM 45.0°F7.2°C -168.3°F-111.3°C - Calm Calm -- 29.24 in990.2 mb 0.02 in0.5 mm 0.00 in0.0 mm 0.06 in1.5 mm
03:16 PM 45.0°F7.2°C -168.3°F-111.3°C - Calm Calm 0.6 mph1.0 kmh 29.23 in989.8 mb 0.00 in0.0 mm 0.00 in0.0 mm 0.06 in1.5 mm
03:31 PM 45.0°F7.2°C -168.3°F-111.3°C - Calm Calm 0.6 mph1.0 kmh 29.24 in990.2 mb 0.01 in0.3 mm 0.05 in1.3 mm 0.07 in1.8 mm
03:46 PM 45.3°F7.4°C -168.3°F-111.3°C - Calm Calm 0.6 mph1.0 kmh 29.24 in990.2 mb 0.01 in0.3 mm 0.00 in0.0 mm 0.07 in1.8 mm
04:01 PM 45.0°F7.2°C -168.3°F-111.3°C - Calm Calm 0.6 mph1.0 kmh 29.24 in990.2 mb 0.01 in0.3 mm 0.00 in0.0 mm 0.07 in1.8 mm
04:16 PM 44.2°F6.8°C -168.4°F-111.3°C - Calm Calm 0.6 mph1.0 kmh 29.23 in989.8 mb 0.00 in0.0 mm 0.00 in0.0 mm 0.07 in1.8 mm
04:31 PM 44.1°F6.7°C -168.4°F-111.3°C - Calm Calm -- 29.24 in990.2 mb 0.00 in0.0 mm 0.00 in0.0 mm 0.07 in1.8 mm
04:46 PM 44.1°F6.7°C -168.4°F-111.3°C - Calm Calm -- 29.25 in990.5 mb 0.00 in0.0 mm 0.00 in0.0 mm 0.07 in1.8 mm
05:01 PM 44.2°F6.8°C -168.4°F-111.3°C - Calm Calm 2.0 mph3.2 kmh 29.26 in990.9 mb 0.00 in0.0 mm 0.00 in0.0 mm 0.07 in1.8 mm
05:16 PM 43.3°F6.3°C -168.5°F-111.4°C - Calm Calm -- 29.24 in990.2 mb 0.00 in0.0 mm 0.00 in0.0 mm 0.07 in1.8 mm
05:31 PM 42.8°F6.0°C -168.5°F-111.4°C - Calm Calm -- 29.24 in990.2 mb 0.00 in0.0 mm 0.00 in0.0 mm 0.07 in1.8 mm
05:46 PM 42.3°F5.7°C -168.6°F-111.4°C - Calm Calm -- 29.24 in990.2 mb 0.00 in0.0 mm 0.00 in0.0 mm 0.07 in1.8 mm
06:01 PM 41.5°F5.3°C -168.6°F-111.4°C - Calm Calm -- 29.24 in990.2 mb 0.00 in0.0 mm 0.00 in0.0 mm 0.07 in1.8 mm
06:16 PM 41.0°F5.0°C -168.7°F-111.5°C - Calm Calm -- 29.24 in990.2 mb 0.00 in0.0 mm 0.00 in0.0 mm 0.07 in1.8 mm
06:31 PM 40.8°F4.9°C -168.7°F-111.5°C - Calm Calm -- 29.24 in990.2 mb 0.00 in0.0 mm 0.00 in0.0 mm 0.07 in1.8 mm
06:46 PM 41.4°F5.2°C -168.7°F-111.5°C - Calm Calm -- 29.24 in990.2 mb 0.00 in0.0 mm 0.00 in0.0 mm 0.07 in1.8 mm
07:01 PM 42.1°F5.6°C -168.6°F-111.4°C - Calm Calm -- 29.23 in989.8 mb 0.00 in0.0 mm 0.00 in0.0 mm 0.07 in1.8 mm
07:16 PM 42.4°F5.8°C -168.6°F-111.4°C - Calm Calm -- 29.22 in989.5 mb 0.00 in0.0 mm 0.00 in0.0 mm 0.07 in1.8 mm
07:31 PM 43.0°F6.1°C -168.5°F-111.4°C - Calm Calm -- 29.21 in989.2 mb 0.00 in0.0 mm 0.00 in0.0 mm 0.07 in1.8 mm
07:46 PM 43.9°F6.6°C -168.4°F-111.3°C - Calm Calm -- 29.21 in989.2 mb 0.00 in0.0 mm 0.00 in0.0 mm 0.07 in1.8 mm
08:01 PM 44.4°F6.9°C -168.4°F-111.3°C - Calm Calm -- 29.21 in989.2 mb 0.00 in0.0 mm 0.00 in0.0 mm 0.07 in1.8 mm
08:16 PM 44.6°F7.0°C -168.3°F-111.3°C - Calm Calm 0.6 mph1.0 kmh 29.20 in988.8 mb 0.00 in0.0 mm 0.00 in0.0 mm 0.07 in1.8 mm
08:31 PM 44.2°F6.8°C -168.4°F-111.3°C - Calm Calm -- 29.20 in988.8 mb 0.00 in0.0 mm 0.00 in0.0 mm 0.07 in1.8 mm
08:46 PM 44.2°F6.8°C -168.4°F-111.3°C - Calm Calm -- 29.19 in988.5 mb 0.00 in0.0 mm 0.00 in0.0 mm 0.07 in1.8 mm
09:01 PM 44.1°F6.7°C -168.4°F-111.3°C - Calm Calm -- 29.18 in988.1 mb 0.00 in0.0 mm 0.00 in0.0 mm 0.07 in1.8 mm
09:16 PM 44.4°F6.9°C -168.4°F-111.3°C - Calm Calm -- 29.17 in987.8 mb 0.00 in0.0 mm 0.00 in0.0 mm 0.07 in1.8 mm
09:31 PM 44.8°F7.1°C -168.3°F-111.3°C - Calm Calm 0.6 mph1.0 kmh 29.17 in987.8 mb 0.00 in0.0 mm 0.00 in0.0 mm 0.07 in1.8 mm
09:46 PM 45.0°F7.2°C -168.3°F-111.3°C - Calm Calm -- 29.15 in987.1 mb 0.00 in0.0 mm 0.00 in0.0 mm 0.07 in1.8 mm
10:01 PM 45.0°F7.2°C -168.3°F-111.3°C - Calm Calm 0.6 mph1.0 kmh 29.15 in987.1 mb 0.00 in0.0 mm 0.00 in0.0 mm 0.07 in1.8 mm
10:16 PM 45.0°F7.2°C -168.3°F-111.3°C - Calm Calm 0.6 mph1.0 kmh 29.15 in987.1 mb 0.00 in0.0 mm 0.00 in0.0 mm 0.07 in1.8 mm
10:31 PM 44.8°F7.1°C -168.3°F-111.3°C - Calm Calm 0.6 mph1.0 kmh 29.15 in987.1 mb 0.00 in0.0 mm 0.00 in0.0 mm 0.07 in1.8 mm
10:46 PM 44.4°F6.9°C -168.4°F-111.3°C - Calm Calm -- 29.14 in986.8 mb 0.00 in0.0 mm 0.00 in0.0 mm 0.07 in1.8 mm
11:01 PM 44.2°F6.8°C -168.4°F-111.3°C - Calm Calm -- 29.13 in986.5 mb 0.00 in0.0 mm 0.00 in0.0 mm 0.07 in1.8 mm
11:16 PM 44.4°F6.9°C -168.4°F-111.3°C - Calm Calm -- 29.13 in986.5 mb 0.00 in0.0 mm 0.00 in0.0 mm 0.07 in1.8 mm
11:31 PM 44.2°F6.8°C -168.4°F-111.3°C - Calm Calm -- 29.11 in985.8 mb 0.00 in0.0 mm 0.00 in0.0 mm 0.07 in1.8 mm
11:46 PM 44.4°F6.9°C -168.4°F-111.3°C - Calm Calm -- 29.11 in985.8 mb 0.00 in0.0 mm 0.00 in0.0 mm 0.07 in1.8 mm